Time;durP1;ratioP1;P1;durP2;ratioP2;P2;SDS_P1;SDS_P2;PMS_P1;PMS_P2;Temp;Humidity;BMP_temperature;BMP_pressure;BME280_temperature;BME280_humidity;BME280_pressure;Samples;Min_cycle;Max_cycle;Signal;HPM_P1;HPM_P2
2023/08/09 00:00:10;;;;;;;7.80;3.70;;;16.20;99.90;;;;;;5021866;28;20236;-56
2023/08/09 00:02:38;;;;;;;5.40;3.70;;;16.30;99.90;;;;;;5025916;28;20308;-57
2023/08/09 00:05:08;;;;;;;6.67;3.70;;;16.20;99.90;;;;;;5033175;28;20617;-58
2023/08/09 00:07:36;;;;;;;6.80;4.40;;;16.20;99.90;;;;;;5035765;28;20226;-56
2023/08/09 00:10:07;;;;;;;8.57;4.20;;;16.30;99.90;;;;;;5026041;28;20782;-57
2023/08/09 00:12:35;;;;;;;7.63;4.50;;;16.30;99.90;;;;;;5005384;28;20564;-58
2023/08/09 00:15:04;;;;;;;7.93;4.40;;;16.20;99.90;;;;;;5023968;28;20234;-57
2023/08/09 00:17:34;;;;;;;14.40;4.67;;;16.20;99.90;;;;;;5026706;28;20227;-58
2023/08/09 00:20:04;;;;;;;7.43;4.17;;;16.30;99.90;;;;;;5026372;28;20272;-57
2023/08/09 00:22:32;;;;;;;4.33;3.80;;;16.30;99.90;;;;;;5026981;28;20231;-56
2023/08/09 00:25:01;;;;;;;6.73;4.50;;;16.20;99.90;;;;;;5022582;28;20222;-58
2023/08/09 00:27:30;;;;;;;16.13;4.80;;;16.20;99.90;;;;;;5029635;28;20203;-58
2023/08/09 00:29:59;;;;;;;7.27;4.00;;;16.20;99.90;;;;;;5026600;28;20220;-58
2023/08/09 00:32:27;;;;;;;7.47;4.50;;;16.30;99.90;;;;;;5033955;28;20216;-58
2023/08/09 00:34:56;;;;;;;14.67;4.80;;;16.30;99.90;;;;;;5020625;28;20284;-58
2023/08/09 00:37:24;;;;;;;7.10;4.50;;;16.30;99.90;;;;;;5028279;28;20803;-59
2023/08/09 00:39:53;;;;;;;8.10;4.30;;;16.30;99.90;;;;;;5028866;28;20691;-57
2023/08/09 00:42:21;;;;;;;8.77;4.27;;;16.30;99.90;;;;;;5027589;28;20200;-57
2023/08/09 00:44:54;;;;;;;7.17;4.10;;;16.30;99.90;;;;;;5016689;28;20238;-56
2023/08/09 00:47:22;;;;;;;8.90;4.67;;;16.30;99.90;;;;;;5021213;28;20223;-58
2023/08/09 00:49:52;;;;;;;4.83;4.17;;;16.30;99.90;;;;;;5023762;28;20217;-57
2023/08/09 00:52:21;;;;;;;10.53;4.87;;;16.30;99.90;;;;;;5022994;28;20233;-56
2023/08/09 00:54:49;;;;;;;9.60;4.30;;;16.30;99.90;;;;;;5055342;28;20332;-58
2023/08/09 00:57:17;;;;;;;6.63;4.10;;;16.30;99.90;;;;;;5045884;28;20226;-58
2023/08/09 00:59:46;;;;;;;4.77;4.00;;;16.40;99.90;;;;;;5043623;28;20699;-58
2023/08/09 01:02:15;;;;;;;4.53;4.00;;;16.40;99.90;;;;;;5043847;28;20216;-57
2023/08/09 01:04:44;;;;;;;7.80;3.70;;;16.40;99.90;;;;;;5027456;28;20231;-57
2023/08/09 01:07:17;;;;;;;6.50;4.77;;;16.40;99.90;;;;;;5043491;28;20233;-57
2023/08/09 01:09:53;;;;;;;11.57;4.50;;;16.40;99.90;;;;;;5046050;28;20201;-58
2023/08/09 01:12:24;;;;;;;6.00;4.97;;;16.40;99.90;;;;;;5042230;28;20218;-58
2023/08/09 01:14:59;;;;;;;5.83;4.10;;;16.40;99.90;;;;;;5044242;28;20212;-58
2023/08/09 01:17:30;;;;;;;10.23;4.23;;;16.40;99.90;;;;;;5042441;28;20218;-57
2023/08/09 01:20:01;;;;;;;5.00;4.50;;;16.40;99.90;;;;;;5046857;28;20303;-57
2023/08/09 01:22:31;;;;;;;5.43;4.10;;;16.40;99.90;;;;;;5044090;28;20219;-58
2023/08/09 01:25:06;;;;;;;6.23;4.57;;;16.40;99.90;;;;;;5045355;28;20280;-57
2023/08/09 01:27:36;;;;;;;7.87;4.53;;;16.40;99.90;;;;;;5041944;28;20242;-55
2023/08/09 01:30:07;;;;;;;8.97;4.40;;;16.50;99.90;;;;;;5045143;28;20699;-58
2023/08/09 01:32:36;;;;;;;11.57;4.60;;;16.40;99.90;;;;;;5047497;28;20220;-59
2023/08/09 01:35:05;;;;;;;7.13;4.40;;;16.50;99.90;;;;;;5048122;28;20242;-58
2023/08/09 01:37:38;;;;;;;11.63;5.10;;;16.50;99.90;;;;;;5045073;28;20224;-58
2023/08/09 01:40:12;;;;;;;12.57;5.17;;;16.40;99.90;;;;;;5047514;28;20229;-58
2023/08/09 01:42:41;;;;;;;9.70;4.87;;;16.50;99.90;;;;;;5045633;28;20255;-58
2023/08/09 01:45:12;;;;;;;5.57;5.07;;;16.50;99.90;;;;;;5044877;28;20342;-58
2023/08/09 01:47:42;;;;;;;8.57;5.00;;;16.50;99.90;;;;;;5043554;28;20219;-58
2023/08/09 01:50:21;;;;;;;7.00;4.77;;;16.50;99.90;;;;;;5045650;28;20685;-57
2023/08/09 01:52:49;;;;;;;5.30;4.40;;;16.50;99.90;;;;;;5020656;28;20726;-58
2023/08/09 01:55:20;;;;;;;6.60;5.63;;;16.50;99.90;;;;;;5024742;28;20235;-58
2023/08/09 01:57:49;;;;;;;9.37;5.47;;;16.50;99.90;;;;;;5033792;28;20187;-58
2023/08/09 02:00:22;;;;;;;10.10;5.10;;;16.50;99.90;;;;;;5028609;28;20224;-58
2023/08/09 02:02:51;;;;;;;8.67;5.07;;;16.50;99.90;;;;;;5033392;28;20231;-58
2023/08/09 02:05:20;;;;;;;8.13;6.00;;;16.50;99.90;;;;;;5029809;28;20286;-58
2023/08/09 02:07:50;;;;;;;10.00;5.57;;;16.50;99.90;;;;;;5031110;28;20312;-58
2023/08/09 02:10:20;;;;;;;6.50;5.07;;;16.50;99.90;;;;;;5028849;28;20717;-58
2023/08/09 02:12:48;;;;;;;7.10;5.50;;;16.50;99.90;;;;;;5026237;28;20195;-57
2023/08/09 02:15:18;;;;;;;13.80;6.33;;;16.50;99.90;;;;;;5025558;28;20217;-58
2023/08/09 02:17:48;;;;;;;9.17;6.50;;;16.50;99.90;;;;;;5029265;28;20725;-58
2023/08/09 02:20:19;;;;;;;10.77;6.10;;;16.50;99.90;;;;;;5018555;28;20700;-57
2023/08/09 02:22:48;;;;;;;10.70;6.50;;;16.50;99.90;;;;;;5029587;28;20218;-59
2023/08/09 02:25:23;;;;;;;8.23;6.70;;;16.50;99.90;;;;;;5023515;28;20225;-58
2023/08/09 02:27:52;;;;;;;9.27;7.03;;;16.50;99.90;;;;;;5031788;28;20245;-56
2023/08/09 02:30:20;;;;;;;8.43;7.57;;;16.50;99.90;;;;;;5024270;28;20512;-59
2023/08/09 02:32:50;;;;;;;9.30;6.80;;;16.50;99.90;;;;;;5024404;28;20714;-58
2023/08/09 02:35:18;;;;;;;7.07;6.37;;;16.40;99.90;;;;;;5023971;28;20583;-57
2023/08/09 02:37:47;;;;;;;6.10;5.20;;;16.40;99.90;;;;;;5022061;28;20217;-59
2023/08/09 02:40:15;;;;;;;5.80;5.30;;;16.40;99.90;;;;;;5024903;28;20224;-58
2023/08/09 02:42:45;;;;;;;7.13;5.50;;;16.30;99.90;;;;;;5024472;28;20213;-59
2023/08/09 02:45:13;;;;;;;6.83;5.83;;;16.30;99.90;;;;;;5023448;28;20285;-59
2023/08/09 02:47:41;;;;;;;4.47;4.17;;;16.30;99.90;;;;;;5024176;28;20215;-58
2023/08/09 02:50:10;;;;;;;4.40;4.10;;;16.20;99.90;;;;;;5026804;28;20230;-58
2023/08/09 02:52:38;;;;;;;4.63;4.23;;;16.20;99.90;;;;;;5009322;28;20691;-58
2023/08/09 02:55:09;;;;;;;4.30;4.10;;;16.20;99.90;;;;;;5043442;28;20192;-58
2023/08/09 02:57:38;;;;;;;3.87;3.60;;;16.10;99.90;;;;;;5039076;28;20200;-59
2023/08/09 03:00:09;;;;;;;4.43;4.13;;;16.00;99.90;;;;;;5021860;28;20711;-58
2023/08/09 03:02:37;;;;;;;4.03;3.43;;;16.00;99.90;;;;;;5039991;28;20232;-59
2023/08/09 03:05:08;;;;;;;3.40;3.27;;;15.90;99.90;;;;;;5041711;28;20229;-59
2023/08/09 03:07:36;;;;;;;4.10;3.70;;;15.90;99.90;;;;;;5044837;28;20225;-58
2023/08/09 03:10:06;;;;;;;4.43;3.57;;;15.90;99.90;;;;;;5048203;28;20290;-58
2023/08/09 03:12:35;;;;;;;4.43;4.13;;;15.80;99.90;;;;;;5047071;28;20190;-59
2023/08/09 03:15:05;;;;;;;4.00;3.80;;;15.80;99.90;;;;;;5046438;28;20253;-58
2023/08/09 03:17:34;;;;;;;6.80;3.70;;;15.80;99.90;;;;;;5046895;28;20219;-59
2023/08/09 03:20:09;;;;;;;4.50;3.43;;;15.80;99.90;;;;;;5042549;28;20222;-58
2023/08/09 03:22:37;;;;;;;5.80;4.20;;;15.70;99.90;;;;;;5041947;28;20222;-58
2023/08/09 03:25:06;;;;;;;4.47;4.17;;;15.70;99.90;;;;;;5044512;28;20657;-58
2023/08/09 03:27:34;;;;;;;5.30;4.90;;;15.70;99.90;;;;;;5040782;28;20198;-58
2023/08/09 03:30:03;;;;;;;6.60;5.10;;;15.80;99.90;;;;;;5048250;28;20253;-59
2023/08/09 03:32:32;;;;;;;5.83;5.33;;;15.80;99.90;;;;;;5047147;28;20234;-58
2023/08/09 03:35:02;;;;;;;5.70;5.20;;;15.80;99.90;;;;;;5046944;28;20223;-58
2023/08/09 03:37:31;;;;;;;5.40;4.90;;;15.70;99.90;;;;;;5050836;28;20231;-58
2023/08/09 03:39:59;;;;;;;5.80;5.30;;;15.70;99.90;;;;;;5039267;28;20193;-58
2023/08/09 03:42:27;;;;;;;7.73;5.83;;;15.80;99.90;;;;;;5038022;28;20722;-59
2023/08/09 03:44:56;;;;;;;5.77;5.27;;;15.70;99.90;;;;;;5038395;28;20221;-58
2023/08/09 03:47:24;;;;;;;6.70;6.10;;;15.70;99.90;;;;;;5050108;28;20231;-58
2023/08/09 03:49:52;;;;;;;8.37;6.43;;;15.70;99.90;;;;;;5051255;28;20219;-58
2023/08/09 03:52:22;;;;;;;6.90;6.23;;;15.70;99.90;;;;;;5052034;28;20242;-58
2023/08/09 03:54:52;;;;;;;8.40;6.80;;;15.70;99.90;;;;;;5045470;28;20182;-57
2023/08/09 03:57:21;;;;;;;10.00;6.70;;;15.70;99.90;;;;;;5042223;28;20556;-58
2023/08/09 03:59:52;;;;;;;7.23;6.10;;;15.60;99.90;;;;;;5049175;28;20226;-58
2023/08/09 04:02:21;;;;;;;9.23;6.83;;;15.60;99.90;;;;;;5050600;28;20224;-58
2023/08/09 04:04:49;;;;;;;7.10;6.40;;;15.50;99.90;;;;;;5043432;28;20232;-58
2023/08/09 04:07:17;;;;;;;9.53;7.00;;;15.40;99.90;;;;;;5050616;28;20230;-58
2023/08/09 04:09:47;;;;;;;7.63;6.70;;;15.40;99.90;;;;;;5047805;28;20228;-58
2023/08/09 04:12:16;;;;;;;10.70;7.23;;;15.40;99.90;;;;;;5050060;28;20229;-57
2023/08/09 04:14:44;;;;;;;12.17;8.30;;;15.40;99.90;;;;;;5035886;28;20228;-58
2023/08/09 04:17:13;;;;;;;10.03;7.43;;;15.40;99.90;;;;;;5040125;28;20322;-58
2023/08/09 04:19:41;;;;;;;16.20;8.40;;;15.30;99.90;;;;;;5049153;28;20676;-57
2023/08/09 04:22:09;;;;;;;15.37;7.83;;;15.30;99.90;;;;;;5044742;28;20219;-59
2023/08/09 04:24:37;;;;;;;9.70;6.67;;;15.30;99.90;;;;;;5044405;28;20203;-58
2023/08/09 04:27:08;;;;;;;9.23;7.50;;;15.20;99.90;;;;;;5041187;28;20681;-58
2023/08/09 04:29:37;;;;;;;10.80;7.87;;;15.10;99.90;;;;;;5047876;28;20218;-57
2023/08/09 04:32:05;;;;;;;11.43;6.63;;;15.10;99.90;;;;;;5049311;28;20215;-58
2023/08/09 04:34:34;;;;;;;7.83;6.80;;;15.00;99.90;;;;;;5041103;28;20576;-59
2023/08/09 04:37:02;;;;;;;10.43;7.20;;;15.00;99.90;;;;;;5027546;28;20191;-58
2023/08/09 04:39:31;;;;;;;7.83;7.03;;;15.00;99.90;;;;;;5047456;28;20189;-58
2023/08/09 04:42:00;;;;;;;8.93;6.90;;;15.00;99.90;;;;;;5036530;28;20215;-58
2023/08/09 04:44:30;;;;;;;8.47;6.47;;;14.90;99.90;;;;;;5033470;28;20227;-58
2023/08/09 04:46:59;;;;;;;9.53;7.07;;;14.90;99.90;;;;;;5049546;28;20609;-58
2023/08/09 04:49:27;;;;;;;8.20;6.87;;;15.00;99.90;;;;;;5032475;28;20229;-58
2023/08/09 04:51:56;;;;;;;11.30;6.80;;;15.00;99.90;;;;;;5046220;28;20214;-57
2023/08/09 04:54:25;;;;;;;8.07;7.17;;;15.00;99.90;;;;;;5029169;28;20206;-57
2023/08/09 04:56:53;;;;;;;8.60;7.23;;;15.00;99.90;;;;;;5031460;28;20707;-58
2023/08/09 04:59:21;;;;;;;11.60;8.10;;;15.00;99.90;;;;;;5025313;28;20696;-59
2023/08/09 05:01:51;;;;;;;10.47;7.30;;;15.00;99.90;;;;;;5027310;28;20297;-58
2023/08/09 05:04:19;;;;;;;10.00;7.33;;;14.90;99.90;;;;;;5032908;28;20217;-58
2023/08/09 05:06:47;;;;;;;9.90;7.57;;;14.90;99.90;;;;;;5030985;28;20202;-58
2023/08/09 05:09:16;;;;;;;14.20;7.97;;;14.90;99.90;;;;;;5028660;28;20222;-58
2023/08/09 05:11:44;;;;;;;9.33;6.50;;;14.90;99.90;;;;;;5030043;28;20703;-58
2023/08/09 05:14:13;;;;;;;9.43;6.73;;;14.90;99.90;;;;;;5028201;28;20224;-58
2023/08/09 05:16:41;;;;;;;10.00;7.30;;;14.80;99.90;;;;;;5005027;28;20797;-59
2023/08/09 05:19:11;;;;;;;9.90;7.13;;;14.80;99.90;;;;;;5027687;28;21004;-58
2023/08/09 05:21:39;;;;;;;12.27;7.40;;;14.80;99.90;;;;;;5029601;28;20192;-59
2023/08/09 05:24:08;;;;;;;16.30;8.53;;;14.80;99.90;;;;;;5017217;28;20230;-58
2023/08/09 05:26:37;;;;;;;13.30;7.97;;;14.90;99.90;;;;;;5018899;28;20709;-58
2023/08/09 05:29:06;;;;;;;14.23;9.00;;;14.90;99.90;;;;;;5018603;28;20230;-58
2023/08/09 05:31:34;;;;;;;17.73;9.23;;;15.00;99.90;;;;;;5028755;28;20234;-58
2023/08/09 05:34:03;;;;;;;24.70;9.53;;;15.10;99.90;;;;;;5021122;28;20190;-57
2023/08/09 05:36:33;;;;;;;17.67;8.30;;;15.30;99.90;;;;;;5029948;28;20207;-57
2023/08/09 05:39:02;;;;;;;22.43;9.47;;;15.40;99.90;;;;;;5029867;28;20717;-57
2023/08/09 05:41:30;;;;;;;18.33;8.67;;;15.40;99.90;;;;;;5026613;28;20219;-58
2023/08/09 05:43:58;;;;;;;31.73;9.73;;;15.50;99.90;;;;;;5030221;28;20231;-58
2023/08/09 05:46:27;;;;;;;14.33;7.97;;;15.60;99.90;;;;;;5024869;28;20272;-56
2023/08/09 05:48:55;;;;;;;18.20;9.50;;;15.70;99.90;;;;;;5023004;28;20210;-56
2023/08/09 05:51:24;;;;;;;21.40;9.33;;;15.80;99.90;;;;;;5017049;28;20228;-56
2023/08/09 05:53:54;;;;;;;17.00;8.83;;;15.90;99.90;;;;;;5018318;28;20236;-58
2023/08/09 05:56:23;;;;;;;16.07;9.30;;;16.10;99.90;;;;;;5024347;28;20252;-58
2023/08/09 05:58:51;;;;;;;13.27;7.70;;;16.20;99.90;;;;;;5028663;28;20217;-58
2023/08/09 06:01:20;;;;;;;13.90;8.97;;;16.30;99.90;;;;;;5023970;28;20302;-58
2023/08/09 06:03:49;;;;;;;14.13;9.17;;;16.50;99.90;;;;;;5019010;28;20216;-58
2023/08/09 06:06:17;;;;;;;27.77;10.00;;;16.50;99.90;;;;;;5026223;28;20233;-58
2023/08/09 06:08:45;;;;;;;15.90;9.57;;;16.50;99.90;;;;;;5012808;28;20220;-59
2023/08/09 06:11:15;;;;;;;11.40;8.90;;;16.50;99.90;;;;;;5022407;28;20221;-56
2023/08/09 06:13:43;;;;;;;18.07;9.47;;;16.50;99.90;;;;;;5009038;28;20668;-57
2023/08/09 06:16:12;;;;;;;11.27;8.13;;;16.60;99.90;;;;;;5030020;28;20316;-56
2023/08/09 06:18:40;;;;;;;12.33;8.33;;;16.60;99.90;;;;;;5022070;28;20715;-57
2023/08/09 06:21:09;;;;;;;11.70;8.83;;;16.60;99.90;;;;;;5022849;28;20272;-58
2023/08/09 06:23:37;;;;;;;17.83;8.10;;;16.70;99.90;;;;;;5008899;28;20300;-57
2023/08/09 06:26:06;;;;;;;13.33;7.87;;;16.60;99.90;;;;;;5026456;28;20274;-57
2023/08/09 06:28:36;;;;;;;9.23;7.63;;;16.70;99.90;;;;;;5036539;28;20544;-58
2023/08/09 06:31:04;;;;;;;8.53;7.63;;;16.70;99.90;;;;;;5017470;28;20197;-57
2023/08/09 06:33:37;;;;;;;10.70;8.57;;;16.80;99.90;;;;;;5027144;28;20606;-57
2023/08/09 06:36:07;;;;;;;10.17;8.40;;;16.70;99.90;;;;;;5028041;28;20251;-57
2023/08/09 06:38:35;;;;;;;9.00;7.60;;;16.80;99.90;;;;;;5028541;28;20600;-58
2023/08/09 06:41:04;;;;;;;12.00;8.70;;;16.80;99.90;;;;;;5028201;28;20274;-58
2023/08/09 06:43:32;;;;;;;12.40;9.00;;;16.80;99.90;;;;;;5025052;28;22282;-57
2023/08/09 06:46:02;;;;;;;11.50;8.40;;;16.80;99.90;;;;;;5023886;28;20210;-58
2023/08/09 06:48:32;;;;;;;10.13;7.90;;;16.90;99.90;;;;;;5028351;28;20603;-58
2023/08/09 06:51:01;;;;;;;11.13;8.20;;;16.90;99.90;;;;;;5025821;28;20225;-55
2023/08/09 06:53:29;;;;;;;13.63;9.33;;;17.10;99.90;;;;;;5038312;28;20212;-56
2023/08/09 06:55:58;;;;;;;11.87;8.90;;;17.30;99.90;;;;;;5047485;28;20307;-58
2023/08/09 06:58:26;;;;;;;10.73;8.27;;;17.40;99.90;;;;;;5041284;28;20282;-57
2023/08/09 07:00:56;;;;;;;11.03;8.87;;;17.60;99.90;;;;;;5043274;28;21802;-54
2023/08/09 07:03:26;;;;;;;9.80;7.93;;;17.60;99.90;;;;;;5043684;28;20270;-58
2023/08/09 07:05:55;;;;;;;10.20;8.37;;;17.60;99.90;;;;;;5045685;28;20688;-58
2023/08/09 07:08:24;;;;;;;9.50;8.00;;;17.70;99.90;;;;;;5052055;28;20221;-55
2023/08/09 07:10:52;;;;;;;11.77;7.80;;;17.80;99.90;;;;;;5049524;28;20212;-57
2023/08/09 07:13:21;;;;;;;10.27;7.93;;;17.80;99.90;;;;;;5051717;28;20307;-58
2023/08/09 07:15:49;;;;;;;9.60;7.70;;;17.80;99.90;;;;;;5050774;28;20279;-57
2023/08/09 07:18:18;;;;;;;9.63;8.10;;;17.80;99.90;;;;;;5050263;28;20216;-58
2023/08/09 07:20:50;;;;;;;7.37;6.30;;;17.70;99.90;;;;;;5033318;28;20262;-56
2023/08/09 07:23:19;;;;;;;7.33;6.60;;;17.70;99.90;;;;;;5053835;28;21971;-58
2023/08/09 07:26:08;;;;;;;7.03;6.33;;;17.90;99.90;;;;;;5048875;28;20228;-58
2023/08/09 07:28:36;;;;;;;7.23;6.63;;;18.30;99.90;;;;;;5052754;28;20217;-58
2023/08/09 07:31:04;;;;;;;9.83;7.17;;;18.70;99.90;;;;;;5055444;28;20209;-58
2023/08/09 07:33:32;;;;;;;6.80;6.10;;;19.00;99.90;;;;;;5052766;28;20186;-58
2023/08/09 07:36:02;;;;;;;6.10;5.60;;;19.00;99.90;;;;;;5047394;28;20236;-58
2023/08/09 07:38:31;;;;;;;6.97;6.37;;;19.10;99.90;;;;;;5050647;28;20229;-58
2023/08/09 07:41:00;;;;;;;6.43;5.77;;;19.00;99.90;;;;;;5051353;28;20221;-54
2023/08/09 07:43:28;;;;;;;6.87;6.33;;;19.10;99.90;;;;;;5049010;28;20220;-56
2023/08/09 07:45:57;;;;;;;6.47;5.87;;;19.40;99.90;;;;;;5051378;28;20201;-56
2023/08/09 07:48:26;;;;;;;6.00;5.50;;;19.60;99.90;;;;;;5051214;28;20289;-56
2023/08/09 07:50:54;;;;;;;4.80;4.50;;;19.80;99.90;;;;;;5049886;28;20262;-57
2023/08/09 07:53:24;;;;;;;4.33;4.07;;;20.00;99.90;;;;;;5039903;28;20228;-57
2023/08/09 07:55:53;;;;;;;4.60;4.13;;;20.30;99.90;;;;;;5022814;28;20283;-57
2023/08/09 07:58:21;;;;;;;4.10;3.90;;;20.60;99.90;;;;;;5032674;28;20240;-58
2023/08/09 08:00:50;;;;;;;3.33;2.80;;;20.90;99.90;;;;;;5030536;28;20569;-58
2023/08/09 08:03:19;;;;;;;3.57;2.50;;;20.80;94.60;;;;;;5030604;28;20201;-58
2023/08/09 08:05:47;;;;;;;2.40;2.30;;;20.60;94.50;;;;;;5027409;28;20330;-57
2023/08/09 08:08:17;;;;;;;3.23;2.87;;;20.60;96.10;;;;;;5016531;28;20809;-58
2023/08/09 08:10:47;;;;;;;2.90;2.80;;;20.70;90.10;;;;;;5028967;28;20247;-57
2023/08/09 08:13:16;;;;;;;3.40;3.20;;;20.90;87.80;;;;;;5028314;28;20287;-58
2023/08/09 08:15:45;;;;;;;3.10;2.90;;;21.10;76.80;;;;;;5025104;28;20240;-58
2023/08/09 08:18:14;;;;;;;3.23;2.80;;;21.10;81.60;;;;;;5027581;28;20316;-58
2023/08/09 08:20:43;;;;;;;3.60;3.03;;;21.20;76.70;;;;;;5033729;28;20280;-57
2023/08/09 08:23:11;;;;;;;5.43;3.40;;;21.40;67.90;;;;;;5028914;28;20284;-57
2023/08/09 08:25:39;;;;;;;3.47;3.20;;;21.40;52.20;;;;;;5033567;28;20209;-57
2023/08/09 08:28:09;;;;;;;3.50;3.20;;;21.60;65.10;;;;;;5035550;28;20648;-58
2023/08/09 08:30:38;;;;;;;5.43;3.70;;;21.70;45.00;;;;;;5014117;28;21932;-58
2023/08/09 08:33:09;;;;;;;3.53;3.15;;;21.90;51.90;;;;;;5029308;28;20233;-58
2023/08/09 08:35:43;;;;;;;3.47;3.08;;;22.20;31.90;;;;;;5031878;28;20302;-57
2023/08/09 08:38:12;;;;;;;4.03;3.13;;;22.30;1.00;;;;;;5031591;28;20247;-58
2023/08/09 08:40:40;;;;;;;3.30;3.05;;;22.10;17.00;;;;;;5029660;28;20225;-59
2023/08/09 08:43:10;;;;;;;3.55;3.20;;;22.20;24.60;;;;;;5027884;28;20302;-57
2023/08/09 08:45:39;;;;;;;3.00;2.90;;;22.40;1.70;;;;;;5027238;28;20221;-58
2023/08/09 08:48:09;;;;;;;3.67;3.28;;;22.40;14.60;;;;;;5012672;28;20221;-58
2023/08/09 08:50:38;;;;;;;3.40;3.20;;;22.20;12.00;;;;;;5030386;28;20641;-56
2023/08/09 08:53:08;;;;;;;3.53;3.40;;;22.10;11.00;;;;;;5034400;28;20221;-58
2023/08/09 08:55:36;;;;;;;3.35;3.00;;;22.10;6.60;;;;;;5039856;28;20294;-55
2023/08/09 08:58:05;;;;;;;3.23;2.90;;;22.20;1.00;;;;;;5047830;28;20202;-58
2023/08/09 09:00:38;;;;;;;3.42;2.92;;;22.20;1.00;;;;;;5050245;28;20285;-55
2023/08/09 09:03:06;;;;;;;3.40;3.10;;;22.20;1.00;;;;;;5042892;28;20618;-58
2023/08/09 09:05:35;;;;;;;3.87;3.57;;;22.30;1.00;;;;;;5048729;28;20231;-57
2023/08/09 09:08:04;;;;;;;4.27;3.23;;;22.10;1.00;;;;;;5043494;28;20225;-56
2023/08/09 09:10:32;;;;;;;3.50;3.20;;;22.00;2.00;;;;;;5048180;28;20699;-58
2023/08/09 09:13:01;;;;;;;3.60;2.80;;;22.00;1.00;;;;;;5047747;28;20706;-58
2023/08/09 09:15:29;;;;;;;2.13;2.03;;;22.80;1.00;;;;;;5049511;28;20185;-58
2023/08/09 09:18:05;;;;;;;3.25;2.42;;;23.50;1.00;;;;;;5048520;28;20698;-55
2023/08/09 09:20:34;;;;;;;2.60;2.50;;;24.10;99.90;;;;;;5049469;28;20213;-58
2023/08/09 09:23:02;;;;;;;2.42;2.10;;;23.90;99.90;;;;;;5049814;28;20231;-55
2023/08/09 09:25:31;;;;;;;2.80;2.70;;;23.40;99.90;;;;;;5046813;28;20223;-57
2023/08/09 09:28:00;;;;;;;2.75;2.55;;;23.20;99.90;;;;;;5029464;28;20720;-58
2023/08/09 09:30:31;;;;;;;3.28;2.70;;;23.70;99.90;;;;;;5050892;28;20195;-57
2023/08/09 09:33:03;;;;;;;2.00;2.00;;;24.50;99.90;;;;;;5047276;28;20229;-58
2023/08/09 09:35:34;;;;;;;2.30;2.20;;;25.20;99.90;;;;;;5036481;28;20244;-57
2023/08/09 09:38:04;;;;;;;3.28;1.80;;;25.10;99.90;;;;;;5013370;28;20686;-57
2023/08/09 09:40:34;;;;;;;4.07;2.17;;;24.90;99.90;;;;;;5042202;28;20226;-57
2023/08/09 09:43:05;;;;;;;5.18;2.38;;;25.10;99.90;;;;;;5041178;28;20216;-57
2023/08/09 09:45:36;;;;;;;3.25;1.67;;;25.70;99.90;;;;;;5048032;28;20221;-58
2023/08/09 09:48:17;;;;;;;2.10;1.90;;;26.00;99.90;;;;;;5044937;28;20316;-57
2023/08/09 09:50:47;;;;;;;1.70;1.60;;;25.80;99.90;;;;;;5024915;28;20221;-57
2023/08/09 09:53:16;;;;;;;1.80;1.70;;;25.90;99.90;;;;;;5042210;28;20218;-57
2023/08/09 09:55:45;;;;;;;1.65;1.52;;;26.50;99.90;;;;;;5046402;28;20243;-58
2023/08/09 09:58:14;;;;;;;3.10;1.55;;;27.20;99.90;;;;;;5047568;28;20618;-57
2023/08/09 10:00:47;;;;;;;1.65;1.55;;;27.60;99.90;;;;;;5042344;28;20198;-57
2023/08/09 10:03:23;;;;;;;2.40;1.60;;;26.80;99.90;;;;;;5042299;28;20224;-57
2023/08/09 10:05:57;;;;;;;1.75;1.65;;;25.30;99.90;;;;;;5044320;28;20218;-57
2023/08/09 10:08:28;;;;;;;3.30;1.60;;;24.70;99.90;;;;;;5041063;28;20829;-57
2023/08/09 10:10:58;;;;;;;4.82;1.60;;;25.40;99.90;;;;;;5038083;28;20267;-57
2023/08/09 10:13:29;;;;;;;3.83;1.60;;;26.00;99.90;;;;;;5025248;28;20224;-58
2023/08/09 10:16:02;;;;;;;2.67;1.70;;;26.40;99.90;;;;;;5047362;28;20193;-56
2023/08/09 10:18:36;;;;;;;1.50;1.40;;;25.60;99.90;;;;;;5045286;28;20192;-57
2023/08/09 10:21:05;;;;;;;1.85;1.38;;;24.80;99.90;;;;;;5046457;28;20262;-57
2023/08/09 10:23:34;;;;;;;2.85;1.27;;;25.00;99.90;;;;;;5044894;28;20247;-57
2023/08/09 10:26:02;;;;;;;3.92;1.60;;;25.80;99.90;;;;;;5046941;28;20223;-57
2023/08/09 10:28:49;;;;;;;1.48;1.42;;;26.80;99.90;;;;;;5029735;28;20311;-57
2023/08/09 10:31:46;;;;;;;3.20;1.70;;;27.60;99.90;;;;;;5037002;28;20283;-58
2023/08/09 10:34:16;;;;;;;3.55;1.42;;;28.00;99.90;;;;;;5033421;28;20224;-57
2023/08/09 10:36:50;;;;;;;1.52;1.42;;;27.80;99.90;;;;;;5048690;28;20181;-57
2023/08/09 10:39:19;;;;;;;1.88;1.60;;;27.20;99.90;;;;;;5042548;28;20296;-57
2023/08/09 10:42:00;;;;;;;1.58;1.50;;;27.10;99.90;;;;;;5046958;28;20224;-58
2023/08/09 10:44:34;;;;;;;1.70;1.60;;;26.40;99.90;;;;;;5053647;28;20277;-57
2023/08/09 10:47:04;;;;;;;1.58;1.52;;;26.00;99.90;;;;;;5043318;28;20230;-58
2023/08/09 10:49:46;;;;;;;3.72;1.60;;;26.30;99.90;;;;;;5041571;28;20242;-57
2023/08/09 10:52:15;;;;;;;2.10;2.00;;;25.60;99.90;;;;;;5046179;28;20573;-55
2023/08/09 10:54:52;;;;;;;4.38;1.80;;;24.60;99.90;;;;;;5045568;28;20229;-56
2023/08/09 10:57:21;;;;;;;4.63;1.60;;;23.80;99.90;;;;;;5045808;28;20221;-55
2023/08/09 10:59:57;;;;;;;2.28;2.00;;;24.00;99.90;;;;;;5048334;28;20316;-56
2023/08/09 11:02:26;;;;;;;1.80;1.70;;;24.90;99.90;;;;;;5055212;28;20331;-57
2023/08/09 11:04:56;;;;;;;1.85;1.60;;;26.00;99.90;;;;;;5042629;28;20235;-56
2023/08/09 11:07:25;;;;;;;2.60;1.52;;;26.80;99.90;;;;;;5020887;28;20287;-57
2023/08/09 11:09:55;;;;;;;1.48;1.38;;;26.90;99.90;;;;;;5047129;28;20191;-56
2023/08/09 11:12:25;;;;;;;1.67;1.58;;;25.90;99.90;;;;;;5047598;28;20189;-58
2023/08/09 11:14:54;;;;;;;1.30;1.30;;;25.00;99.90;;;;;;5047692;28;20223;-56
2023/08/09 11:17:24;;;;;;;3.80;1.30;;;24.90;99.90;;;;;;5046760;28;20229;-58
2023/08/09 11:19:52;;;;;;;1.85;1.60;;;25.00;99.90;;;;;;5037213;28;20226;-59
2023/08/09 11:22:22;;;;;;;3.03;1.50;;;25.00;99.90;;;;;;5047736;28;20305;-57
2023/08/09 11:24:52;;;;;;;2.13;1.52;;;24.80;99.90;;;;;;5038960;28;20278;-59
2023/08/09 11:27:20;;;;;;;2.63;1.58;;;25.20;99.90;;;;;;5050742;28;20559;-57
2023/08/09 11:29:50;;;;;;;2.65;1.55;;;25.60;99.90;;;;;;5048367;28;20226;-58
2023/08/09 11:32:26;;;;;;;2.72;1.50;;;25.40;99.90;;;;;;5041129;28;20223;-58
2023/08/09 11:34:54;;;;;;;1.65;1.42;;;25.20;99.90;;;;;;5050004;28;20242;-58
2023/08/09 11:37:25;;;;;;;1.70;1.60;;;24.70;99.90;;;;;;5049611;28;20544;-57
2023/08/09 11:39:53;;;;;;;1.83;1.50;;;24.20;99.90;;;;;;5046665;28;20189;-58
2023/08/09 11:42:23;;;;;;;1.77;1.60;;;23.80;99.90;;;;;;5036456;28;20308;-58
2023/08/09 11:44:51;;;;;;;5.40;1.70;;;23.60;99.90;;;;;;5044161;28;20628;-58
2023/08/09 11:47:19;;;;;;;2.50;1.83;;;23.20;99.90;;;;;;5049154;28;20607;-57
2023/08/09 11:49:48;;;;;;;3.83;1.80;;;23.50;99.90;;;;;;5044758;28;20224;-58
2023/08/09 11:52:17;;;;;;;2.80;1.50;;;24.00;99.90;;;;;;5049926;28;20232;-58
2023/08/09 11:54:47;;;;;;;3.30;1.70;;;24.60;99.90;;;;;;5050394;28;20224;-58
2023/08/09 11:57:17;;;;;;;2.07;1.50;;;25.00;99.90;;;;;;5051572;28;20225;-58
2023/08/09 11:59:45;;;;;;;4.80;1.67;;;25.30;99.90;;;;;;5044981;28;20591;-58
2023/08/09 12:02:13;;;;;;;2.43;1.57;;;25.30;99.90;;;;;;5028953;28;20217;-60
2023/08/09 12:04:43;;;;;;;2.63;1.60;;;25.40;99.90;;;;;;5049311;28;20233;-60
2023/08/09 12:07:13;;;;;;;3.97;1.77;;;25.50;99.90;;;;;;5045555;28;20618;-60
2023/08/09 12:09:44;;;;;;;1.80;1.50;;;25.40;99.90;;;;;;5040392;28;20197;-59
2023/08/09 12:12:16;;;;;;;4.13;1.77;;;25.30;99.90;;;;;;5046750;28;20225;-59
2023/08/09 12:14:46;;;;;;;3.80;1.70;;;25.50;99.90;;;;;;5040885;28;20209;-58
2023/08/09 12:17:19;;;;;;;3.03;1.83;;;25.50;99.90;;;;;;5052936;28;20235;-58
2023/08/09 12:19:51;;;;;;;1.77;1.67;;;25.60;99.90;;;;;;5048198;28;20220;-58
2023/08/09 12:22:19;;;;;;;1.70;1.57;;;25.50;99.90;;;;;;5052062;28;20564;-58
2023/08/09 12:24:48;;;;;;;2.57;1.30;;;25.40;99.90;;;;;;5051952;28;20217;-58
2023/08/09 12:27:19;;;;;;;2.87;1.40;;;25.30;99.90;;;;;;5044872;28;20717;-58
2023/08/09 12:29:48;;;;;;;1.37;1.27;;;25.40;99.90;;;;;;5052154;28;20236;-58
2023/08/09 12:32:17;;;;;;;1.90;1.50;;;25.50;99.90;;;;;;5046666;28;20643;-58
2023/08/09 12:34:47;;;;;;;3.73;1.57;;;25.40;99.90;;;;;;5048556;28;20225;-58
2023/08/09 12:37:15;;;;;;;1.50;1.40;;;25.00;99.90;;;;;;5050101;28;20239;-58
2023/08/09 12:39:44;;;;;;;1.30;1.30;;;24.70;99.90;;;;;;5048828;28;20192;-57
2023/08/09 12:42:12;;;;;;;1.60;1.50;;;24.30;99.90;;;;;;5051337;28;20267;-59
2023/08/09 12:44:42;;;;;;;4.47;1.50;;;24.50;99.90;;;;;;5041561;28;20225;-57
2023/08/09 12:47:10;;;;;;;1.73;1.20;;;24.60;99.90;;;;;;5044217;28;20238;-58
2023/08/09 12:49:45;;;;;;;2.33;1.50;;;25.00;99.90;;;;;;5044047;28;20221;-58
2023/08/09 12:52:13;;;;;;;3.80;1.90;;;25.10;99.90;;;;;;5036791;28;20233;-58
2023/08/09 12:54:42;;;;;;;1.23;1.23;;;25.00;99.90;;;;;;5042257;28;20208;-58
2023/08/09 12:57:09;;;;;;;1.67;1.40;;;25.00;99.90;;;;;;5042183;28;20223;-58